sensor_id;sensor_type;location;lat;lon;timestamp;P1;durP1;ratioP1;P2;durP2;ratioP2
76477;SDS011;65309;49.790;18.972;2023-04-03T00:03:06;2.58;;;2.38;;
76477;SDS011;65309;49.790;18.972;2023-04-03T00:08:08;6.57;;;4.60;;
76477;SDS011;65309;49.790;18.972;2023-04-03T00:13:11;5.88;;;3.50;;
76477;SDS011;65309;49.790;18.972;2023-04-03T00:18:15;2.80;;;2.55;;
76477;SDS011;65309;49.790;18.972;2023-04-03T00:23:17;10.13;;;7.15;;
76477;SDS011;65309;49.790;18.972;2023-04-03T00:28:19;5.03;;;3.55;;
76477;SDS011;65309;49.790;18.972;2023-04-03T00:33:23;8.95;;;6.45;;
76477;SDS011;65309;49.790;18.972;2023-04-03T00:50:44;9.85;;;6.45;;
76477;SDS011;65309;49.790;18.972;2023-04-03T00:55:47;6.30;;;5.72;;
76477;SDS011;65309;49.790;18.972;2023-04-03T01:00:52;8.68;;;6.38;;
76477;SDS011;65309;49.790;18.972;2023-04-03T01:06:00;4.30;;;3.08;;
76477;SDS011;65309;49.790;18.972;2023-04-03T01:11:02;6.13;;;5.53;;
76477;SDS011;65309;49.790;18.972;2023-04-03T01:16:05;11.20;;;6.82;;
76477;SDS011;65309;49.790;18.972;2023-04-03T01:21:13;6.82;;;4.82;;
76477;SDS011;65309;49.790;18.972;2023-04-03T01:26:33;9.40;;;6.18;;
76477;SDS011;65309;49.790;18.972;2023-04-03T01:31:47;5.32;;;4.32;;
76477;SDS011;65309;49.790;18.972;2023-04-03T01:36:51;6.22;;;4.55;;
76477;SDS011;65309;49.790;18.972;2023-04-03T01:41:54;5.22;;;3.60;;
76477;SDS011;65309;49.790;18.972;2023-04-03T01:46:57;5.68;;;3.35;;
76477;SDS011;65309;49.790;18.972;2023-04-03T01:51:59;6.25;;;3.67;;
76477;SDS011;65309;49.790;18.972;2023-04-03T01:57:01;6.22;;;4.60;;
76477;SDS011;65309;49.790;18.972;2023-04-03T02:02:05;3.25;;;2.95;;
76477;SDS011;65309;49.790;18.972;2023-04-03T02:07:07;3.03;;;2.80;;
76477;SDS011;65309;49.790;18.972;2023-04-03T02:12:09;7.90;;;3.97;;
76477;SDS011;65309;49.790;18.972;2023-04-03T02:17:13;4.72;;;3.00;;
76477;SDS011;65309;49.790;18.972;2023-04-03T02:22:15;5.28;;;3.13;;
76477;SDS011;65309;49.790;18.972;2023-04-03T02:27:17;3.90;;;2.58;;
76477;SDS011;65309;49.790;18.972;2023-04-03T02:32:21;4.32;;;3.17;;
76477;SDS011;65309;49.790;18.972;2023-04-03T02:37:22;2.10;;;1.92;;
76477;SDS011;65309;49.790;18.972;2023-04-03T02:42:24;4.78;;;2.53;;
76477;SDS011;65309;49.790;18.972;2023-04-03T02:47:28;2.38;;;2.17;;
76477;SDS011;65309;49.790;18.972;2023-04-03T02:52:30;3.13;;;2.47;;
76477;SDS011;65309;49.790;18.972;2023-04-03T02:57:32;5.60;;;3.80;;
76477;SDS011;65309;49.790;18.972;2023-04-03T03:02:35;5.30;;;4.43;;
76477;SDS011;65309;49.790;18.972;2023-04-03T03:07:38;7.35;;;3.95;;
76477;SDS011;65309;49.790;18.972;2023-04-03T03:12:40;6.45;;;4.35;;
76477;SDS011;65309;49.790;18.972;2023-04-03T03:17:43;7.15;;;3.72;;
76477;SDS011;65309;49.790;18.972;2023-04-03T03:22:45;7.22;;;4.00;;
76477;SDS011;65309;49.790;18.972;2023-04-03T03:27:47;5.85;;;4.40;;
76477;SDS011;65309;49.790;18.972;2023-04-03T03:32:50;4.45;;;4.03;;
76477;SDS011;65309;49.790;18.972;2023-04-03T03:37:53;9.77;;;6.18;;
76477;SDS011;65309;49.790;18.972;2023-04-03T03:42:55;3.75;;;2.45;;
76477;SDS011;65309;49.790;18.972;2023-04-03T03:47:58;7.97;;;6.18;;
76477;SDS011;65309;49.790;18.972;2023-04-03T03:53:00;8.60;;;5.45;;
76477;SDS011;65309;49.790;18.972;2023-04-03T03:58:02;4.40;;;3.47;;
76477;SDS011;65309;49.790;18.972;2023-04-03T04:03:06;4.90;;;3.60;;
76477;SDS011;65309;49.790;18.972;2023-04-03T04:08:08;14.40;;;6.82;;
76477;SDS011;65309;49.790;18.972;2023-04-03T04:13:10;7.55;;;5.72;;
76477;SDS011;65309;49.790;18.972;2023-04-03T04:18:14;7.85;;;4.93;;
76477;SDS011;65309;49.790;18.972;2023-04-03T04:23:16;5.93;;;5.18;;
76477;SDS011;65309;49.790;18.972;2023-04-03T04:28:19;5.10;;;3.97;;
76477;SDS011;65309;49.790;18.972;2023-04-03T04:33:22;6.60;;;5.75;;
76477;SDS011;65309;49.790;18.972;2023-04-03T04:38:24;5.18;;;4.47;;
76477;SDS011;65309;49.790;18.972;2023-04-03T04:43:26;3.42;;;3.13;;
76477;SDS011;65309;49.790;18.972;2023-04-03T04:48:30;3.35;;;3.08;;
76477;SDS011;65309;49.790;18.972;2023-04-03T04:53:33;5.75;;;4.22;;
76477;SDS011;65309;49.790;18.972;2023-04-03T04:58:35;4.45;;;3.65;;
76477;SDS011;65309;49.790;18.972;2023-04-03T05:03:39;5.80;;;2.78;;
76477;SDS011;65309;49.790;18.972;2023-04-03T05:08:41;5.15;;;4.47;;
76477;SDS011;65309;49.790;18.972;2023-04-03T05:13:43;5.47;;;4.68;;
76477;SDS011;65309;49.790;18.972;2023-04-03T05:18:46;3.50;;;3.20;;
76477;SDS011;65309;49.790;18.972;2023-04-03T05:23:48;13.18;;;8.30;;
76477;SDS011;65309;49.790;18.972;2023-04-03T05:28:50;7.88;;;5.10;;
76477;SDS011;65309;49.790;18.972;2023-04-03T05:33:54;6.70;;;5.03;;
76477;SDS011;65309;49.790;18.972;2023-04-03T05:38:56;2.50;;;1.88;;
76477;SDS011;65309;49.790;18.972;2023-04-03T05:43:58;6.13;;;5.25;;
76477;SDS011;65309;49.790;18.972;2023-04-03T05:49:02;8.38;;;6.72;;
76477;SDS011;65309;49.790;18.972;2023-04-03T05:54:06;7.97;;;5.13;;
76477;SDS011;65309;49.790;18.972;2023-04-03T05:59:11;13.57;;;6.57;;
76477;SDS011;65309;49.790;18.972;2023-04-03T06:04:15;5.85;;;4.18;;
76477;SDS011;65309;49.790;18.972;2023-04-03T06:09:17;16.48;;;8.88;;
76477;SDS011;65309;49.790;18.972;2023-04-03T06:14:21;5.22;;;3.92;;
76477;SDS011;65309;49.790;18.972;2023-04-03T06:19:24;9.10;;;5.38;;
76477;SDS011;65309;49.790;18.972;2023-04-03T06:24:27;3.83;;;3.47;;
76477;SDS011;65309;49.790;18.972;2023-04-03T06:29:29;6.75;;;4.32;;
76477;SDS011;65309;49.790;18.972;2023-04-03T06:34:33;11.13;;;6.00;;
76477;SDS011;65309;49.790;18.972;2023-04-03T06:39:35;10.10;;;5.53;;
76477;SDS011;65309;49.790;18.972;2023-04-03T06:44:37;9.40;;;6.15;;
76477;SDS011;65309;49.790;18.972;2023-04-03T06:49:40;8.13;;;4.82;;
76477;SDS011;65309;49.790;18.972;2023-04-03T06:54:43;5.22;;;4.72;;
76477;SDS011;65309;49.790;18.972;2023-04-03T06:59:45;7.72;;;4.07;;
76477;SDS011;65309;49.790;18.972;2023-04-03T07:04:48;9.90;;;5.20;;
76477;SDS011;65309;49.790;18.972;2023-04-03T07:10:49;10.90;;;6.53;;
76477;SDS011;65309;49.790;18.972;2023-04-03T07:16:49;7.25;;;5.22;;
76477;SDS011;65309;49.790;18.972;2023-04-03T07:22:51;11.45;;;4.93;;
76477;SDS011;65309;49.790;18.972;2023-04-03T07:28:52;10.23;;;7.80;;
76477;SDS011;65309;49.790;18.972;2023-04-03T07:34:54;3.42;;;1.63;;
76477;SDS011;65309;49.790;18.972;2023-04-03T07:40:56;5.45;;;3.88;;
76477;SDS011;65309;49.790;18.972;2023-04-03T07:46:57;5.22;;;2.42;;
76477;SDS011;65309;49.790;18.972;2023-04-03T07:52:58;3.13;;;2.67;;
76477;SDS011;65309;49.790;18.972;2023-04-03T07:59:00;9.27;;;3.30;;
76477;SDS011;65309;49.790;18.972;2023-04-03T08:05:01;6.72;;;5.18;;
76477;SDS011;65309;49.790;18.972;2023-04-03T08:11:03;3.70;;;2.78;;
76477;SDS011;65309;49.790;18.972;2023-04-03T08:16:09;8.30;;;3.47;;
76477;SDS011;65309;49.790;18.972;2023-04-03T08:21:13;6.40;;;2.80;;
76477;SDS011;65309;49.790;18.972;2023-04-03T08:26:16;4.47;;;3.85;;
76477;SDS011;65309;49.790;18.972;2023-04-03T08:31:21;9.90;;;4.57;;
76477;SDS011;65309;49.790;18.972;2023-04-03T08:36:24;3.03;;;2.08;;
76477;SDS011;65309;49.790;18.972;2023-04-03T08:41:29;2.05;;;1.48;;
76477;SDS011;65309;49.790;18.972;2023-04-03T08:46:40;4.05;;;2.63;;
76477;SDS011;65309;49.790;18.972;2023-04-03T08:51:49;0.63;;;0.52;;
76477;SDS011;65309;49.790;18.972;2023-04-03T08:56:52;8.35;;;2.55;;
76477;SDS011;65309;49.790;18.972;2023-04-03T09:01:57;2.78;;;1.52;;
76477;SDS011;65309;49.790;18.972;2023-04-03T09:07:05;3.13;;;1.95;;
76477;SDS011;65309;49.790;18.972;2023-04-03T09:12:17;4.88;;;2.53;;
76477;SDS011;65309;49.790;18.972;2023-04-03T09:17:27;2.03;;;1.40;;
76477;SDS011;65309;49.790;18.972;2023-04-03T09:22:40;1.60;;;1.48;;
76477;SDS011;65309;49.790;18.972;2023-04-03T09:27:53;0.38;;;0.38;;
76477;SDS011;65309;49.790;18.972;2023-04-03T09:32:56;0.80;;;0.77;;
76477;SDS011;65309;49.790;18.972;2023-04-03T09:37:59;1.75;;;1.58;;
76477;SDS011;65309;49.790;18.972;2023-04-03T09:43:08;2.50;;;2.10;;
76477;SDS011;65309;49.790;18.972;2023-04-03T09:48:24;2.85;;;1.42;;
76477;SDS011;65309;49.790;18.972;2023-04-03T09:53:32;7.50;;;3.35;;
76477;SDS011;65309;49.790;18.972;2023-04-03T09:58:38;1.95;;;1.80;;
76477;SDS011;65309;49.790;18.972;2023-04-03T10:04:03;3.78;;;1.95;;
76477;SDS011;65309;49.790;18.972;2023-04-03T10:09:16;2.92;;;1.50;;
76477;SDS011;65309;49.790;18.972;2023-04-03T10:14:22;2.60;;;1.83;;
76477;SDS011;65309;49.790;18.972;2023-04-03T10:19:32;2.38;;;1.30;;
76477;SDS011;65309;49.790;18.972;2023-04-03T10:24:40;2.75;;;2.05;;
76477;SDS011;65309;49.790;18.972;2023-04-03T10:29:50;1.48;;;0.90;;
76477;SDS011;65309;49.790;18.972;2023-04-03T10:35:06;1.73;;;0.88;;
76477;SDS011;65309;49.790;18.972;2023-04-03T10:40:17;2.78;;;2.22;;
76477;SDS011;65309;49.790;18.972;2023-04-03T10:45:27;2.45;;;1.75;;
76477;SDS011;65309;49.790;18.972;2023-04-03T10:50:39;3.30;;;2.00;;
76477;SDS011;65309;49.790;18.972;2023-04-03T10:55:51;5.80;;;1.98;;
76477;SDS011;65309;49.790;18.972;2023-04-03T11:01:00;4.55;;;1.40;;
76477;SDS011;65309;49.790;18.972;2023-04-03T11:06:07;1.83;;;1.35;;
76477;SDS011;65309;49.790;18.972;2023-04-03T11:11:11;2.70;;;1.70;;
76477;SDS011;65309;49.790;18.972;2023-04-03T11:16:17;0.57;;;0.57;;
76477;SDS011;65309;49.790;18.972;2023-04-03T11:21:26;2.13;;;1.95;;
76477;SDS011;65309;49.790;18.972;2023-04-03T11:26:32;3.35;;;1.67;;
76477;SDS011;65309;49.790;18.972;2023-04-03T11:31:42;8.38;;;2.80;;
76477;SDS011;65309;49.790;18.972;2023-04-03T11:37:04;3.33;;;3.03;;
76477;SDS011;65309;49.790;18.972;2023-04-03T11:42:14;2.45;;;1.38;;
76477;SDS011;65309;49.790;18.972;2023-04-03T11:53:03;1.92;;;1.58;;
76477;SDS011;65309;49.790;18.972;2023-04-03T11:58:28;4.75;;;2.10;;
76477;SDS011;65309;49.790;18.972;2023-04-03T12:09:22;1.05;;;1.02;;
76477;SDS011;65309;49.790;18.972;2023-04-03T12:14:25;3.65;;;0.98;;
76477;SDS011;65309;49.790;18.972;2023-04-03T12:19:30;1.40;;;1.20;;
76477;SDS011;65309;49.790;18.972;2023-04-03T12:24:46;4.30;;;2.65;;
76477;SDS011;65309;49.790;18.972;2023-04-03T12:29:51;1.23;;;1.13;;
76477;SDS011;65309;49.790;18.972;2023-04-03T12:35:05;1.52;;;1.13;;
76477;SDS011;65309;49.790;18.972;2023-04-03T12:40:18;1.80;;;1.65;;
76477;SDS011;65309;49.790;18.972;2023-04-03T12:45:27;1.95;;;1.08;;
76477;SDS011;65309;49.790;18.972;2023-04-03T12:50:30;6.13;;;1.50;;
76477;SDS011;65309;49.790;18.972;2023-04-03T12:55:35;1.25;;;0.80;;
76477;SDS011;65309;49.790;18.972;2023-04-03T13:00:38;2.17;;;1.13;;
76477;SDS011;65309;49.790;18.972;2023-04-03T13:05:41;1.30;;;1.00;;
76477;SDS011;65309;49.790;18.972;2023-04-03T13:10:50;2.65;;;2.05;;
76477;SDS011;65309;49.790;18.972;2023-04-03T13:15:57;2.47;;;1.75;;
76477;SDS011;65309;49.790;18.972;2023-04-03T13:21:01;1.77;;;1.58;;
76477;SDS011;65309;49.790;18.972;2023-04-03T13:26:08;5.00;;;1.58;;
76477;SDS011;65309;49.790;18.972;2023-04-03T13:31:17;1.55;;;1.08;;
76477;SDS011;65309;49.790;18.972;2023-04-03T13:36:24;2.17;;;1.13;;
76477;SDS011;65309;49.790;18.972;2023-04-03T13:41:31;0.80;;;0.80;;
76477;SDS011;65309;49.790;18.972;2023-04-03T13:46:42;1.05;;;1.00;;
76477;SDS011;65309;49.790;18.972;2023-04-03T13:51:44;2.67;;;1.77;;
76477;SDS011;65309;49.790;18.972;2023-04-03T13:56:53;2.95;;;2.20;;
76477;SDS011;65309;49.790;18.972;2023-04-03T14:02:10;5.13;;;2.15;;
76477;SDS011;65309;49.790;18.972;2023-04-03T14:07:17;1.80;;;1.25;;
76477;SDS011;65309;49.790;18.972;2023-04-03T14:12:25;4.05;;;2.03;;
76477;SDS011;65309;49.790;18.972;2023-04-03T14:17:32;4.78;;;3.08;;
76477;SDS011;65309;49.790;18.972;2023-04-03T14:22:35;2.35;;;2.15;;
76477;SDS011;65309;49.790;18.972;2023-04-03T14:27:39;0.65;;;0.63;;
76477;SDS011;65309;49.790;18.972;2023-04-03T14:32:42;2.72;;;2.03;;
76477;SDS011;65309;49.790;18.972;2023-04-03T14:37:45;2.33;;;1.42;;
76477;SDS011;65309;49.790;18.972;2023-04-03T14:42:50;3.17;;;1.80;;
76477;SDS011;65309;49.790;18.972;2023-04-03T14:47:53;1.75;;;1.48;;
76477;SDS011;65309;49.790;18.972;2023-04-03T14:52:58;0.82;;;0.80;;
76477;SDS011;65309;49.790;18.972;2023-04-03T14:58:02;1.23;;;1.13;;
76477;SDS011;65309;49.790;18.972;2023-04-03T15:03:04;9.23;;;2.20;;
76477;SDS011;65309;49.790;18.972;2023-04-03T15:08:08;4.15;;;2.33;;
76477;SDS011;65309;49.790;18.972;2023-04-03T15:13:20;3.05;;;1.70;;
76477;SDS011;65309;49.790;18.972;2023-04-03T15:18:22;1.15;;;0.60;;
76477;SDS011;65309;49.790;18.972;2023-04-03T15:23:30;4.43;;;2.85;;
76477;SDS011;65309;49.790;18.972;2023-04-03T15:28:34;3.38;;;2.13;;
76477;SDS011;65309;49.790;18.972;2023-04-03T15:33:38;5.00;;;2.47;;
76477;SDS011;65309;49.790;18.972;2023-04-03T15:38:40;3.00;;;2.60;;
76477;SDS011;65309;49.790;18.972;2023-04-03T15:44:15;2.83;;;1.70;;
76477;SDS011;65309;49.790;18.972;2023-04-03T15:50:16;1.67;;;1.58;;
76477;SDS011;65309;49.790;18.972;2023-04-03T15:56:17;5.15;;;3.33;;
76477;SDS011;65309;49.790;18.972;2023-04-03T16:02:19;3.17;;;2.22;;
76477;SDS011;65309;49.790;18.972;2023-04-03T16:08:21;3.08;;;1.75;;
76477;SDS011;65309;49.790;18.972;2023-04-03T16:20:24;5.38;;;1.77;;
76477;SDS011;65309;49.790;18.972;2023-04-03T16:25:27;1.88;;;1.77;;
76477;SDS011;65309;49.790;18.972;2023-04-03T16:30:29;3.50;;;2.13;;
76477;SDS011;65309;49.790;18.972;2023-04-03T16:35:33;10.57;;;4.05;;
76477;SDS011;65309;49.790;18.972;2023-04-03T16:40:35;3.05;;;1.25;;
76477;SDS011;65309;49.790;18.972;2023-04-03T16:45:37;2.08;;;1.90;;
76477;SDS011;65309;49.790;18.972;2023-04-03T16:50:41;8.30;;;3.20;;
76477;SDS011;65309;49.790;18.972;2023-04-03T16:55:43;7.72;;;2.65;;
76477;SDS011;65309;49.790;18.972;2023-04-03T17:00:45;2.63;;;2.13;;
76477;SDS011;65309;49.790;18.972;2023-04-03T17:05:50;4.78;;;1.95;;
76477;SDS011;65309;49.790;18.972;2023-04-03T17:10:52;6.00;;;2.85;;
76477;SDS011;65309;49.790;18.972;2023-04-03T17:15:55;8.40;;;3.10;;
76477;SDS011;65309;49.790;18.972;2023-04-03T17:20:59;3.72;;;2.47;;
76477;SDS011;65309;49.790;18.972;2023-04-03T17:26:02;2.13;;;1.92;;
76477;SDS011;65309;49.790;18.972;2023-04-03T17:31:04;4.85;;;2.33;;
76477;SDS011;65309;49.790;18.972;2023-04-03T17:36:09;5.40;;;2.63;;
76477;SDS011;65309;49.790;18.972;2023-04-03T17:41:11;1.05;;;0.75;;
76477;SDS011;65309;49.790;18.972;2023-04-03T17:46:13;5.43;;;2.67;;
76477;SDS011;65309;49.790;18.972;2023-04-03T17:51:19;8.23;;;4.45;;
76477;SDS011;65309;49.790;18.972;2023-04-03T17:56:23;5.85;;;2.58;;
76477;SDS011;65309;49.790;18.972;2023-04-03T18:01:28;5.95;;;3.22;;
76477;SDS011;65309;49.790;18.972;2023-04-03T18:06:35;4.47;;;2.35;;
76477;SDS011;65309;49.790;18.972;2023-04-03T18:11:40;7.13;;;3.88;;
76477;SDS011;65309;49.790;18.972;2023-04-03T18:16:43;8.82;;;4.68;;
76477;SDS011;65309;49.790;18.972;2023-04-03T18:21:47;4.40;;;3.22;;
76477;SDS011;65309;49.790;18.972;2023-04-03T18:26:50;7.00;;;4.50;;
76477;SDS011;65309;49.790;18.972;2023-04-03T18:31:56;16.50;;;7.22;;
76477;SDS011;65309;49.790;18.972;2023-04-03T18:37:02;9.57;;;4.70;;
76477;SDS011;65309;49.790;18.972;2023-04-03T18:42:05;12.40;;;4.75;;
76477;SDS011;65309;49.790;18.972;2023-04-03T18:47:10;16.17;;;8.20;;
76477;SDS011;65309;49.790;18.972;2023-04-03T18:52:14;20.20;;;9.48;;
76477;SDS011;65309;49.790;18.972;2023-04-03T18:57:16;8.18;;;4.47;;
76477;SDS011;65309;49.790;18.972;2023-04-03T19:02:18;13.43;;;6.47;;
76477;SDS011;65309;49.790;18.972;2023-04-03T19:07:25;5.63;;;2.90;;
76477;SDS011;65309;49.790;18.972;2023-04-03T19:12:28;4.13;;;2.35;;
76477;SDS011;65309;49.790;18.972;2023-04-03T19:17:30;3.95;;;2.33;;
76477;SDS011;65309;49.790;18.972;2023-04-03T19:22:34;2.45;;;1.80;;
76477;SDS011;65309;49.790;18.972;2023-04-03T19:27:37;4.57;;;2.67;;
76477;SDS011;65309;49.790;18.972;2023-04-03T19:32:40;10.32;;;3.15;;
76477;SDS011;65309;49.790;18.972;2023-04-03T19:37:43;5.20;;;3.92;;
76477;SDS011;65309;49.790;18.972;2023-04-03T19:42:48;5.70;;;3.17;;
76477;SDS011;65309;49.790;18.972;2023-04-03T19:47:50;5.35;;;2.40;;
76477;SDS011;65309;49.790;18.972;2023-04-03T19:52:54;4.53;;;2.92;;
76477;SDS011;65309;49.790;18.972;2023-04-03T19:57:57;8.00;;;5.00;;
76477;SDS011;65309;49.790;18.972;2023-04-03T20:02:59;7.72;;;3.60;;
76477;SDS011;65309;49.790;18.972;2023-04-03T20:08:03;7.30;;;3.60;;
76477;SDS011;65309;49.790;18.972;2023-04-03T20:13:06;9.65;;;5.10;;
76477;SDS011;65309;49.790;18.972;2023-04-03T20:18:12;6.50;;;4.72;;
76477;SDS011;65309;49.790;18.972;2023-04-03T20:23:20;5.22;;;4.00;;
76477;SDS011;65309;49.790;18.972;2023-04-03T20:28:22;4.93;;;3.75;;
76477;SDS011;65309;49.790;18.972;2023-04-03T20:33:24;5.57;;;3.35;;
76477;SDS011;65309;49.790;18.972;2023-04-03T20:38:30;3.25;;;1.95;;
76477;SDS011;65309;49.790;18.972;2023-04-03T20:43:32;6.05;;;5.05;;
76477;SDS011;65309;49.790;18.972;2023-04-03T20:48:35;4.65;;;2.60;;
76477;SDS011;65309;49.790;18.972;2023-04-03T20:53:38;4.63;;;3.53;;
76477;SDS011;65309;49.790;18.972;2023-04-03T20:58:41;4.05;;;2.88;;
76477;SDS011;65309;49.790;18.972;2023-04-03T21:03:45;3.33;;;3.00;;
76477;SDS011;65309;49.790;18.972;2023-04-03T21:20:08;4.95;;;3.53;;
76477;SDS011;65309;49.790;18.972;2023-04-03T21:25:10;8.30;;;5.07;;
76477;SDS011;65309;49.790;18.972;2023-04-03T21:30:13;5.72;;;3.85;;
76477;SDS011;65309;49.790;18.972;2023-04-03T21:35:17;9.80;;;5.13;;
76477;SDS011;65309;49.790;18.972;2023-04-03T21:40:19;7.10;;;4.40;;
76477;SDS011;65309;49.790;18.972;2023-04-03T21:45:21;6.72;;;4.00;;
76477;SDS011;65309;49.790;18.972;2023-04-03T21:50:25;5.85;;;4.07;;
76477;SDS011;65309;49.790;18.972;2023-04-03T21:55:27;6.93;;;3.15;;
76477;SDS011;65309;49.790;18.972;2023-04-03T22:00:30;6.00;;;3.92;;
76477;SDS011;65309;49.790;18.972;2023-04-03T22:05:34;11.90;;;4.13;;
76477;SDS011;65309;49.790;18.972;2023-04-03T22:10:37;5.22;;;4.47;;
76477;SDS011;65309;49.790;18.972;2023-04-03T22:15:41;7.35;;;3.97;;
76477;SDS011;65309;49.790;18.972;2023-04-03T22:20:49;7.40;;;3.67;;
76477;SDS011;65309;49.790;18.972;2023-04-03T22:26:01;9.20;;;4.70;;
76477;SDS011;65309;49.790;18.972;2023-04-03T22:31:05;8.95;;;4.72;;
76477;SDS011;65309;49.790;18.972;2023-04-03T22:36:10;7.10;;;4.57;;
76477;SDS011;65309;49.790;18.972;2023-04-03T22:41:13;5.10;;;3.35;;
76477;SDS011;65309;49.790;18.972;2023-04-03T22:46:15;7.68;;;3.00;;
76477;SDS011;65309;49.790;18.972;2023-04-03T22:51:19;5.47;;;3.03;;
76477;SDS011;65309;49.790;18.972;2023-04-03T22:56:20;4.75;;;2.45;;
76477;SDS011;65309;49.790;18.972;2023-04-03T23:01:26;8.77;;;4.60;;
76477;SDS011;65309;49.790;18.972;2023-04-03T23:06:31;4.65;;;3.65;;
76477;SDS011;65309;49.790;18.972;2023-04-03T23:11:33;2.47;;;2.28;;
76477;SDS011;65309;49.790;18.972;2023-04-03T23:16:35;3.58;;;2.83;;
76477;SDS011;65309;49.790;18.972;2023-04-03T23:21:38;4.80;;;2.35;;
76477;SDS011;65309;49.790;18.972;2023-04-03T23:26:40;7.45;;;3.10;;
76477;SDS011;65309;49.790;18.972;2023-04-03T23:31:42;7.85;;;4.10;;
76477;SDS011;65309;49.790;18.972;2023-04-03T23:36:45;5.47;;;3.28;;
76477;SDS011;65309;49.790;18.972;2023-04-03T23:41:47;2.38;;;1.63;;
76477;SDS011;65309;49.790;18.972;2023-04-03T23:46:50;6.40;;;3.80;;
76477;SDS011;65309;49.790;18.972;2023-04-03T23:51:54;5.80;;;4.20;;
76477;SDS011;65309;49.790;18.972;2023-04-03T23:56:57;3.15;;;2.85;;
